Time;durP1;ratioP1;P1;durP2;ratioP2;P2;SDS_P1;SDS_P2;PMS_P1;PMS_P2;Temp;Humidity;BMP_temperature;BMP_pressure;BME280_temperature;BME280_humidity;BME280_pressure;Samples;Min_cycle;Max_cycle;Signal;HPM_P1;HPM_P2
2021/11/08 00:00:32;;;;;;;15.55;12.93;;;;;;;;;;5135408;27;20022;-71
2021/11/08 00:02:59;;;;;;;17.27;13.23;;;;;;;;;;5135101;27;20039;-71
2021/11/08 00:05:26;;;;;;;18.48;14.77;;;;;;;;;;5135211;27;20042;-72
2021/11/08 00:07:57;;;;;;;21.40;15.68;;;;;;;;;;5133743;27;20038;-71
2021/11/08 00:10:29;;;;;;;19.52;13.50;;;;;;;;;;5135257;27;20453;-71
2021/11/08 00:12:55;;;;;;;;;;;;;;;;;;5135765;27;20019;-72
2021/11/08 00:15:26;;;;;;;15.38;11.68;;;;;;;;;;5135138;27;20281;-71
2021/11/08 00:18:02;;;;;;;18.05;12.85;;;;;;;;;;5134712;27;20015;-71
2021/11/08 00:21:02;;;;;;;23.05;16.70;;;;;;;;;;5133477;27;20031;-71
2021/11/08 00:23:21;;;;;;;14.32;11.32;;;;;;;;;;5132690;27;20023;-71
2021/11/08 00:25:47;;;;;;;12.30;10.95;;;;;;;;;;5134138;27;20087;-71
2021/11/08 00:28:17;;;;;;;17.13;11.20;;;;;;;;;;5134784;27;20417;-71
2021/11/08 00:30:44;;;;;;;17.65;13.98;;;;;;;;;;5134611;27;20106;-71
2021/11/08 00:33:15;;;;;;;137.18;107.15;;;;;;;;;;5134686;27;20015;-71
2021/11/08 00:35:41;;;;;;;17.65;15.60;;;;;;;;;;5134518;27;20015;-71
2021/11/08 00:38:08;;;;;;;12.77;10.63;;;;;;;;;;5134730;27;20019;-72
2021/11/08 00:40:35;;;;;;;16.17;12.18;;;;;;;;;;5131557;27;20032;-72
2021/11/08 00:43:02;;;;;;;12.55;10.05;;;;;;;;;;5121701;27;20027;-72
2021/11/08 00:45:28;;;;;;;16.17;11.73;;;;;;;;;;5133261;27;20485;-71
2021/11/08 00:47:55;;;;;;;15.30;12.00;;;;;;;;;;5120649;27;20023;-71
2021/11/08 00:50:22;;;;;;;20.13;14.00;;;;;;;;;;5134325;27;20047;-71
2021/11/08 00:52:48;;;;;;;24.58;16.75;;;;;;;;;;5134254;27;20015;-71
2021/11/08 00:55:15;;;;;;;25.70;17.98;;;;;;;;;;5134185;27;20514;-71
2021/11/08 00:57:44;;;;;;;20.85;15.70;;;;;;;;;;5134178;27;20033;-72
2021/11/08 01:00:12;;;;;;;19.60;15.57;;;;;;;;;;5134238;27;20037;-72
2021/11/08 01:02:39;;;;;;;27.67;21.25;;;;;;;;;;5134000;27;20055;-71
2021/11/08 01:05:06;;;;;;;29.02;20.35;;;;;;;;;;5134159;27;20027;-71
2021/11/08 01:07:33;;;;;;;27.50;19.15;;;;;;;;;;5134053;27;20083;-72
2021/11/08 01:09:59;;;;;;;16.80;13.30;;;;;;;;;;5134029;27;20050;-71
2021/11/08 01:12:26;;;;;;;16.05;12.05;;;;;;;;;;5133929;27;20067;-72
2021/11/08 01:14:53;;;;;;;21.13;15.75;;;;;;;;;;5133991;27;20358;-71
2021/11/08 01:17:20;;;;;;;19.67;14.57;;;;;;;;;;5133791;27;20027;-71
2021/11/08 01:19:47;;;;;;;19.42;14.10;;;;;;;;;;5133965;27;20413;-71
2021/11/08 01:22:18;;;;;;;17.95;13.52;;;;;;;;;;5133772;27;20094;-71
2021/11/08 01:24:52;;;;;;;16.95;13.30;;;;;;;;;;5134016;27;20110;-71
2021/11/08 01:27:18;;;;;;;15.30;12.43;;;;;;;;;;5133508;27;20100;-72
2021/11/08 01:29:44;;;;;;;20.52;14.98;;;;;;;;;;5132256;27;20384;-72
2021/11/08 01:32:11;;;;;;;18.90;14.18;;;;;;;;;;5133391;27;20019;-74
2021/11/08 01:34:37;;;;;;;17.45;12.80;;;;;;;;;;5133801;27;20477;-71
2021/11/08 01:37:04;;;;;;;18.85;13.48;;;;;;;;;;5133147;27;20023;-71
2021/11/08 01:39:33;;;;;;;25.50;16.65;;;;;;;;;;5133704;27;20453;-72
2021/11/08 01:42:00;;;;;;;21.77;15.10;;;;;;;;;;5133238;27;20015;-71
2021/11/08 01:44:28;;;;;;;20.35;14.93;;;;;;;;;;5133471;27;20011;-71
2021/11/08 01:46:55;;;;;;;22.92;15.55;;;;;;;;;;5133252;27;20030;-72
2021/11/08 01:49:21;;;;;;;22.42;16.30;;;;;;;;;;5133523;27;20026;-71
2021/11/08 01:51:47;;;;;;;19.75;14.32;;;;;;;;;;5133729;27;20027;-71
2021/11/08 01:54:14;;;;;;;23.30;15.75;;;;;;;;;;5133449;27;20012;-71
2021/11/08 01:56:40;;;;;;;18.33;14.07;;;;;;;;;;5133780;27;20038;-72
2021/11/08 01:59:06;;;;;;;26.00;19.42;;;;;;;;;;5133232;27;20031;-71
2021/11/08 02:01:33;;;;;;;22.73;15.90;;;;;;;;;;5133498;27;20027;-71
2021/11/08 02:04:00;;;;;;;18.13;14.35;;;;;;;;;;5133596;27;20020;-71
2021/11/08 02:06:26;;;;;;;19.25;13.70;;;;;;;;;;5133251;27;20023;-71
2021/11/08 02:08:52;;;;;;;18.23;14.32;;;;;;;;;;5133943;28;20545;-71
2021/11/08 02:11:22;;;;;;;19.05;14.43;;;;;;;;;;5133237;28;20065;-71
2021/11/08 02:13:50;;;;;;;19.48;14.35;;;;;;;;;;5133413;28;20110;-71
2021/11/08 02:16:16;;;;;;;19.15;14.00;;;;;;;;;;5133292;28;20106;-71
2021/11/08 02:18:42;;;;;;;19.80;14.95;;;;;;;;;;5133167;28;20015;-71
2021/11/08 02:21:10;;;;;;;18.88;14.48;;;;;;;;;;5133410;28;20019;-71
2021/11/08 02:23:37;;;;;;;16.33;13.18;;;;;;;;;;5133106;28;20016;-71
2021/11/08 02:26:07;;;;;;;17.92;13.43;;;;;;;;;;5131739;28;20046;-71
2021/11/08 02:28:33;;;;;;;22.13;16.75;;;;;;;;;;5133157;28;20062;-72
2021/11/08 02:31:00;;;;;;;21.02;15.07;;;;;;;;;;5133323;28;20026;-71
2021/11/08 02:33:27;;;;;;;18.63;13.98;;;;;;;;;;5133130;28;20015;-71
2021/11/08 02:35:54;;;;;;;18.20;14.18;;;;;;;;;;5133570;28;20394;-71
2021/11/08 02:38:26;;;;;;;21.58;14.85;;;;;;;;;;5133453;28;20098;-71
2021/11/08 02:40:53;;;;;;;17.95;14.30;;;;;;;;;;5132914;28;20111;-71
2021/11/08 02:43:21;;;;;;;19.30;14.15;;;;;;;;;;5133260;28;20015;-71
2021/11/08 02:45:47;;;;;;;19.95;14.40;;;;;;;;;;5132882;28;20477;-71
2021/11/08 02:48:14;;;;;;;19.08;14.55;;;;;;;;;;5134908;27;20020;-70
2021/11/08 02:50:41;;;;;;;21.92;15.25;;;;;;;;;;5136902;27;20019;-72
2021/11/08 02:53:12;;;;;;;26.20;18.17;;;;;;;;;;5137069;27;20007;-71
2021/11/08 02:55:38;;;;;;;24.50;15.88;;;;;;;;;;5136564;27;20062;-71
2021/11/08 02:58:04;;;;;;;24.98;16.90;;;;;;;;;;5136882;27;20054;-71
2021/11/08 03:00:32;;;;;;;18.25;13.93;;;;;;;;;;5136830;27;20023;-71
2021/11/08 03:02:59;;;;;;;20.67;14.60;;;;;;;;;;5136582;27;20016;-71
2021/11/08 03:05:32;;;;;;;15.50;13.27;;;;;;;;;;5136791;27;20046;-71
2021/11/08 03:07:58;;;;;;;16.70;12.90;;;;;;;;;;5136369;27;20060;-71
2021/11/08 03:10:28;;;;;;;18.00;13.35;;;307.50;2304.00;;;;;;5136716;27;20023;-71
2021/11/08 03:12:57;;;;;;;16.35;12.55;;;;;;;;;;5136621;27;20029;-71
2021/11/08 03:18:55;;;;;;;21.35;15.13;;;;;;;;;;5072713;28;20124;-71
2021/11/08 03:21:18;;;;;;;18.88;14.38;;;;;;;;;;5070160;28;20039;-72
2021/11/08 03:23:45;;;;;;;17.98;14.27;;;;;;;;;;5073078;28;20466;-71
2021/11/08 03:28:38;;;;;;;20.17;15.10;;;;;;;;;;5072913;28;20036;-72
2021/11/08 03:31:08;;;;;;;20.05;15.95;;;;;;;;;;5072896;28;20566;-71
2021/11/08 03:33:34;;;;;;;20.60;14.90;;;307.70;2304.00;;;;;;5072730;28;20386;-71
2021/11/08 03:36:01;;;;;;;18.70;14.60;;;307.70;2304.00;;;;;;5073006;28;20036;-71
2021/11/08 03:38:27;;;;;;;22.23;17.17;;;307.70;2304.00;;;;;;5072973;28;20029;-71
2021/11/08 03:40:52;;;;;;;19.08;14.55;;;307.80;2304.00;;;;;;5072702;28;20118;-72
2021/11/08 03:43:20;;;;;;;33.85;24.67;;;307.80;2304.00;;;;;;5072883;28;20127;-71
2021/11/08 03:45:47;;;;;;;24.25;18.33;;;;;;;;;;5072449;28;20095;-71
2021/11/08 03:48:14;;;;;;;19.52;14.82;;;;;;;;;;5055859;28;20025;-71
2021/11/08 03:50:41;;;;;;;17.05;13.38;;;;;;;;;;5072492;28;20025;-71
2021/11/08 03:53:07;;;;;;;18.10;13.25;;;;;;;;;;5072593;28;20482;-71
2021/11/08 03:55:33;;;;;;;18.45;14.68;;;;;;;;;;5126800;27;20110;-72
2021/11/08 03:57:59;;;;;;;23.10;14.90;;;;;;;;;;5135744;27;20449;-71
2021/11/08 04:00:26;;;;;;;19.70;14.88;;;;;;;;;;5135551;27;20027;-71
2021/11/08 04:02:54;;;;;;;23.88;15.02;;;;;;;;;;5135462;27;20022;-71
2021/11/08 04:05:22;;;;;;;20.75;17.08;;;307.80;2304.00;;;;;;5135556;27;20069;-71
2021/11/08 04:07:49;;;;;;;23.15;17.75;;;;;;;;;;5135515;27;20031;-72
2021/11/08 04:10:16;;;;;;;22.10;14.85;;;;;;;;;;5135638;27;20377;-71
2021/11/08 04:12:42;;;;;;;24.02;17.25;;;;;;;;;;5135358;27;20019;-71
2021/11/08 04:15:10;;;;;;;33.30;21.83;;;;;;;;;;5135470;27;20027;-70
2021/11/08 04:17:41;;;;;;;22.30;17.17;;;;;;;;;;5135493;27;20470;-71
2021/11/08 04:20:08;;;;;;;19.73;15.63;;;;;;;;;;5135052;27;20030;-71
2021/11/08 04:22:36;;;;;;;25.90;17.23;;;;;;;;;;5135250;27;20030;-71
2021/11/08 04:25:02;;;;;;;21.00;16.33;;;;;;;;;;5135048;27;20019;-71
2021/11/08 04:27:28;;;;;;;24.55;18.10;;;;;;;;;;5135148;27;20466;-72
2021/11/08 04:29:54;;;;;;;25.75;19.48;;;;;;;;;;5134874;27;20031;-71
2021/11/08 04:32:23;;;;;;;32.03;22.73;;;;;;;;;;5135245;27;20422;-71
2021/11/08 04:35:02;;;;;;;21.85;16.05;;;307.70;2304.00;;;;;;5135009;27;20027;-71
2021/11/08 04:37:52;;;;;;;23.25;18.10;;;307.70;2304.00;;;;;;5134892;27;20023;-71
2021/11/08 04:40:29;;;;;;;23.85;18.60;;;307.70;2304.00;;;;;;5134767;27;20023;-71
2021/11/08 04:43:05;;;;;;;27.80;19.25;;;307.40;2304.00;;;;;;5135013;27;20019;-71
2021/11/08 04:51:29;;;;;;;65.00;38.10;;;307.70;2304.00;;;;;;5134882;27;20405;-71
2021/11/08 04:53:34;;;;;;;44.08;27.95;;;307.60;2304.00;;;;;;5123513;27;20122;-71
2021/11/08 05:31:42;;;;;;;28.45;21.33;;;;;;;;;;5024526;28;20857;-72
2021/11/08 05:34:08;;;;;;;31.00;20.80;;;;;;;;;;5030680;28;20160;-71
2021/11/08 05:36:34;;;;;;;36.58;25.75;;;;;;;;;;5030708;28;20405;-71
2021/11/08 05:39:00;;;;;;;35.65;25.63;;;;;;;;;;5043710;28;20515;-71
2021/11/08 05:41:27;;;;;;;38.97;26.83;;;;;;;;;;5050470;28;20032;-71
2021/11/08 05:43:54;;;;;;;27.83;20.27;;;;;;;;;;5050308;28;20040;-72
2021/11/08 05:46:20;;;;;;;33.47;23.48;;;;;;;;;;5050583;28;20112;-71
2021/11/08 05:48:47;;;;;;;43.53;27.00;;;;;;;;;;5050206;28;20025;-71
2021/11/08 05:51:13;;;;;;;38.60;27.60;;;;;;;;;;5050341;28;20063;-71
2021/11/08 05:53:43;;;;;;;32.25;23.15;;;;;;;;;;5050313;28;20021;-72
2021/11/08 05:59:44;;;;;;;35.83;26.67;;;;;;;;;;5010528;28;20109;-71
2021/11/08 06:51:21;;;;;;;41.63;28.15;;;;;;;;;;5111008;27;20019;-71
2021/11/08 06:53:48;;;;;;;46.08;31.25;;;;;;;;;;5137004;27;20474;-71
2021/11/08 06:56:22;;;;;;;31.77;23.45;;;308.00;2304.00;;;;;;5136871;27;20110;-71
2021/11/08 06:58:48;;;;;;;32.67;22.30;;;307.90;2304.00;;;;;;5136928;27;20023;-72
2021/11/08 07:01:15;;;;;;;33.05;22.67;;;;;;;;;;5136690;27;20422;-71
2021/11/08 07:03:41;;;;;;;57.20;39.53;;;;;;;;;;5136907;27;20373;-71
2021/11/08 07:06:07;;;;;;;281.73;147.95;;;;;;;;;;5136446;27;20049;-71
2021/11/08 07:08:33;;;;;;;107.70;60.60;;;;;;;;;;5136793;27;20027;-71
2021/11/08 07:11:00;;;;;;;40.40;30.27;;;;;;;;;;5136493;27;20023;-71
2021/11/08 07:13:26;;;;;;;52.15;42.75;;;;;;;;;;5136561;27;20023;-71
2021/11/08 07:15:52;;;;;;;62.95;53.17;;;;;;;;;;5136425;27;20555;-71
2021/11/08 07:18:18;;;;;;;53.63;45.03;;;;;;;;;;5136565;27;20023;-71
2021/11/08 07:20:45;;;;;;;42.47;32.70;;;;;;;;;;5136496;27;20015;-71
2021/11/08 07:23:12;;;;;;;49.75;34.33;;;;;;;;;;5136509;27;20027;-71
2021/11/08 07:25:38;;;;;;;46.40;31.20;;;;;;;;;;5135990;27;20080;-72
2021/11/08 07:28:09;;;;;;;50.80;32.65;;;308.00;2304.00;;;;;;5136225;27;20545;-71
2021/11/08 07:30:35;;;;;;;53.78;36.38;;;308.10;2304.00;;;;;;5136159;27;20027;-71
2021/11/08 07:33:01;;;;;;;65.18;44.45;;;332.80;2329.60;;;;;;5135896;27;20023;-71
2021/11/08 07:35:27;;;;;;;58.65;40.13;;;332.90;2329.60;;;;;;5135983;27;20549;-71
2021/11/08 07:37:53;;;;;;;64.32;41.58;;;332.90;2329.60;;;;;;5136159;27;20358;-71
2021/11/08 07:40:18;;;;;;;55.47;41.72;;;333.10;2329.60;;;;;;5135981;27;20024;-71
2021/11/08 07:42:44;;;;;;;62.40;44.95;;;333.10;2329.60;;;;;;5136092;27;20480;-71
2021/11/08 07:45:10;;;;;;;60.97;46.15;;;333.00;2329.60;;;;;;5135814;27;20031;-71
2021/11/08 07:47:37;;;;;;;61.83;45.17;;;333.00;2329.60;;;;;;5135909;27;20038;-71
2021/11/08 07:50:04;;;;;;;63.90;48.03;;;333.00;2329.60;;;;;;5136214;27;20118;-71
2021/11/08 07:52:30;;;;;;;65.75;48.30;;;333.00;2329.60;;;;;;5135485;27;20477;-70
2021/11/08 07:54:56;;;;;;;81.68;57.30;;;332.90;2329.60;;;;;;5135817;27;20027;-72
2021/11/08 07:57:22;;;;;;;104.43;69.57;;;308.10;2304.00;;;;;;5135982;27;20043;-71
2021/11/08 07:59:48;;;;;;;81.40;56.63;;;332.90;2329.60;;;;;;5135768;27;20023;-71
2021/11/08 08:02:14;;;;;;;68.00;52.22;;;333.10;2329.60;;;;;;5121881;27;20481;-71
2021/11/08 08:04:40;;;;;;;56.63;42.60;;;333.20;2329.60;;;;;;5134627;27;20019;-71
2021/11/08 08:07:05;;;;;;;64.45;43.15;;;333.20;2329.60;;;;;;5135426;27;20452;-71
2021/11/08 08:09:32;;;;;;;55.50;40.63;;;;;;;;;;5135473;27;20377;-74
2021/11/08 08:11:58;;;;;;;45.05;34.30;;;333.30;2329.60;;;;;;5135350;27;20098;-71
2021/11/08 08:14:24;;;;;;;40.65;30.58;;;333.20;2329.60;;;;;;5134841;27;20020;-72
2021/11/08 08:16:50;;;;;;;41.83;32.88;;;333.20;2329.60;;;;;;5135027;27;20034;-71
2021/11/08 08:19:16;;;;;;;78.57;47.38;;;333.20;2329.60;;;;;;5134747;27;20022;-72
2021/11/08 08:21:42;;;;;;;90.40;54.80;;;332.80;2329.60;;;;;;5134805;27;20366;-75
2021/11/08 08:24:08;;;;;;;67.50;45.05;;;;;;;;;;5134883;27;20022;-72
2021/11/08 08:26:36;;;;;;;43.05;32.05;;;308.00;2304.00;;;;;;5124922;27;20047;-71
2021/11/08 08:29:06;;;;;;;45.45;31.60;;;307.80;2304.00;;;;;;5134638;27;20027;-71
2021/11/08 08:31:34;;;;;;;39.45;28.88;;;307.90;2304.00;;;;;;5134608;27;20023;-72
2021/11/08 08:34:00;;;;;;;39.15;28.15;;;332.80;2329.60;;;;;;5134896;27;20426;-71
2021/11/08 08:36:27;;;;;;;58.13;37.35;;;333.00;2329.60;;;;;;5134767;27;20389;-71
2021/11/08 08:38:53;;;;;;;60.15;36.10;;;332.90;2329.60;;;;;;5134260;27;20027;-71
2021/11/08 08:41:19;;;;;;;52.45;29.60;;;333.00;2329.60;;;;;;5134342;27;20525;-71
2021/11/08 08:43:45;;;;;;;173.55;89.40;;;333.10;2329.60;;;;;;5134266;27;20114;-71
2021/11/08 08:46:13;;;;;;;154.95;110.38;;;332.90;2329.60;;;;;;5133247;27;20028;-71
2021/11/08 08:48:40;;;;;;;66.35;52.90;;;333.10;2329.60;;;;;;5134417;27;20393;-72
2021/11/08 08:51:07;;;;;;;65.72;57.25;;;333.40;2329.60;;;;;;5134127;27;20030;-72
2021/11/08 08:53:33;;;;;;;66.55;47.90;;;;;;;;;;5134148;27;20026;-71
2021/11/08 08:56:00;;;;;;;43.58;36.05;;;;;;;;;;5126800;27;20055;-72
2021/11/08 08:58:26;;;;;;;51.03;35.70;;;;;;;;;;5133515;27;20027;-71
2021/11/08 09:00:52;;;;;;;42.88;30.33;;;;;;;;;;5133746;27;20113;-71
2021/11/08 09:03:18;;;;;;;48.25;33.65;;;;;;;;;;5134433;27;20477;-71
2021/11/08 09:05:45;;;;;;;39.92;27.45;;;;;;;;;;5133865;27;20031;-72
2021/11/08 09:08:11;;;;;;;42.88;26.98;;;;;;;;;;5133989;27;20092;-71
2021/11/08 09:10:38;;;;;;;43.75;28.85;;;;;;;;;;5134033;27;20030;-71
2021/11/08 09:13:05;;;;;;;29.52;21.17;;;;;;;;;;5133846;27;20011;-71
2021/11/08 09:15:32;;;;;;;40.25;27.90;;;;;;;;;;5132298;27;20035;-71
2021/11/08 09:17:59;;;;;;;45.03;32.03;;;;;;;;;;5133779;27;20518;-71
2021/11/08 09:20:25;;;;;;;38.15;28.08;;;;;;;;;;5133598;27;20023;-74
2021/11/08 09:22:51;;;;;;;50.47;32.45;;;;;;;;;;5133854;27;20023;-71
2021/11/08 09:25:19;;;;;;;74.60;51.45;;;;;;;;;;5131796;27;20024;-72
2021/11/08 09:27:46;;;;;;;67.50;51.17;;;;;;;;;;5126882;27;20119;-71
2021/11/08 09:30:13;;;;;;;98.97;78.70;;;;;;;;;;5133377;27;20110;-71
2021/11/08 09:32:39;;;;;;;88.90;68.75;;;;;;;;;;5133425;27;20389;-73
2021/11/08 09:35:06;;;;;;;74.38;58.65;;;;;;;;;;5133431;27;20023;-71
2021/11/08 09:37:34;;;;;;;84.82;75.50;;;;;;;;;;5133388;27;20031;-71
2021/11/08 09:40:00;;;;;;;58.88;45.95;;;;;;;;;;5133590;27;20465;-72
2021/11/08 09:42:28;;;;;;;54.60;44.35;;;;;;;;;;5133604;27;20027;-71
2021/11/08 09:44:54;;;;;;;62.80;47.35;;;332.90;2329.60;;;;;;5133265;27;20105;-71
2021/11/08 09:47:20;;;;;;;55.40;45.35;;;333.10;2329.60;;;;;;5133347;27;20026;-71
2021/11/08 09:49:57;;;;;;;33.30;26.08;;;333.30;2329.60;;;;;;5133088;27;20389;-71
2021/11/08 09:52:25;;;;;;;33.33;28.33;;;333.00;2329.60;;;;;;5133111;27;20381;-71
2021/11/08 09:54:51;;;;;;;46.28;36.58;;;332.80;2329.60;;;;;;5133318;27;20423;-71
2021/11/08 09:57:17;;;;;;;37.65;28.10;;;332.90;2329.60;;;;;;5133206;27;20107;-72
2021/11/08 09:59:43;;;;;;;48.08;39.00;;;332.90;2329.60;;;;;;5133205;27;20070;-72
2021/11/08 10:02:14;;;;;;;39.08;31.45;;;332.80;2329.60;;;;;;5133208;27;20039;-71
2021/11/08 10:04:43;;;;;;;46.47;37.88;;;308.10;2304.00;;;;;;5132921;27;20018;-71
2021/11/08 10:07:11;;;;;;;43.72;37.95;;;332.90;2329.60;;;;;;5133126;27;20114;-71
2021/11/08 10:09:38;;;;;;;39.65;35.35;;;333.20;2329.60;;;;;;5133105;27;20193;-72
2021/11/08 10:12:11;;;;;;;31.17;24.17;;;333.00;2329.60;;;;;;5133198;28;20027;-71
2021/11/08 10:14:39;;;;;;;24.55;20.42;;;333.10;2329.60;;;;;;5132978;28;20347;-71
2021/11/08 10:17:06;;;;;;;29.77;22.58;;;333.10;2329.60;;;;;;5133220;28;20094;-71
2021/11/08 10:19:34;;;;;;;31.98;25.65;;;333.30;2329.60;;;;;;5133104;28;20116;-72
2021/11/08 10:22:01;;;;;;;44.70;37.00;;;333.50;2329.60;;;;;;5132766;27;20020;-71
2021/11/08 10:24:31;;;;;;;38.85;30.42;;;333.30;2329.60;;;;;;5132997;28;20019;-71
2021/11/08 10:26:58;;;;;;;87.50;61.03;;;;;;;;;;5132604;28;20043;-71
2021/11/08 10:29:26;;;;;;;41.38;31.20;;;333.00;2329.60;;;;;;5131445;28;20113;-71
2021/11/08 10:31:55;;;;;;;44.83;32.22;;;333.10;2329.60;;;;;;5132906;28;20158;-72
2021/11/08 10:34:24;;;;;;;36.97;25.90;;;333.40;2329.60;;;;;;5133150;28;20454;-71
2021/11/08 10:37:04;;;;;;;32.65;24.55;;;;;;;;;;5118306;28;20115;-71
2021/11/08 10:39:33;;;;;;;35.30;23.80;;;;;;;;;;5132831;28;20022;-71
2021/11/08 10:41:58;;;;;;;28.60;19.00;;;333.20;2329.60;;;;;;5133008;27;20369;-72
2021/11/08 10:44:24;;;;;;;30.35;20.13;;;333.20;2329.60;;;;;;5132926;28;20027;-71
2021/11/08 10:47:00;;;;;;;24.17;17.10;;;333.10;2329.60;;;;;;5132594;28;20372;-71
2021/11/08 10:49:29;;;;;;;28.92;22.20;;;333.00;2329.60;;;;;;5132949;28;20023;-72
2021/11/08 10:51:56;;;;;;;30.30;20.65;;;;;;;;;;5132613;28;20074;-71
2021/11/08 10:54:27;;;;;;;26.98;19.90;;;333.10;2329.60;;;;;;5132759;28;20011;-71
2021/11/08 10:57:03;;;;;;;28.08;20.67;;;332.90;2329.60;;;;;;5124400;28;20060;-71
2021/11/08 10:59:32;;;;;;;28.25;17.48;;;333.00;2329.60;;;;;;5132553;27;20030;-72
2021/11/08 11:02:00;;;;;;;23.00;17.25;;;333.00;2329.60;;;;;;5132515;28;20035;-71
2021/11/08 11:04:38;;;;;;;26.85;19.98;;;332.90;2329.60;;;;;;5132293;28;20389;-71
2021/11/08 11:07:05;;;;;;;27.88;17.55;;;332.90;2329.60;;;;;;5132404;28;20158;-72
2021/11/08 11:09:36;;;;;;;65.07;31.35;;;332.90;2329.60;;;;;;5134835;27;20026;-71
2021/11/08 11:12:11;;;;;;;35.25;25.98;;;333.00;2329.60;;;;;;5136519;27;20080;-71
2021/11/08 11:14:49;;;;;;;31.85;24.75;;;332.90;2329.60;;;;;;5136166;27;20330;-71
2021/11/08 11:17:37;;;;;;;35.47;31.58;;;332.80;2329.60;;;;;;5136346;27;20019;-71
2021/11/08 11:20:11;;;;;;;41.22;36.78;;;332.90;2329.60;;;;;;5135905;27;20019;-71
2021/11/08 11:22:43;;;;;;;27.13;20.13;;;332.90;2329.60;;;;;;5136010;27;20385;-71
2021/11/08 11:25:11;;;;;;;24.02;17.63;;;332.90;2329.60;;;;;;5119615;27;20019;-71
2021/11/08 11:27:47;;;;;;;28.77;21.48;;;332.80;2329.60;;;;;;5135875;27;20164;-72
2021/11/08 11:30:18;;;;;;;64.60;55.50;;;;;;;;;;5135893;27;20031;-71
2021/11/08 11:32:44;;;;;;;58.40;44.40;;;;;;;;;;5135909;27;20393;-71
2021/11/08 11:35:20;;;;;;;69.25;50.50;;;;;;;;;;5135682;27;20028;-71
2021/11/08 11:37:59;;;;;;;51.65;43.05;;;;;;;;;;5135745;27;20110;-72
2021/11/08 11:40:26;;;;;;;51.88;41.22;;;;;;;;;;5135622;27;20019;-72
2021/11/08 11:42:54;;;;;;;63.67;47.20;;;;;;;;;;5135616;27;20480;-72
2021/11/08 11:45:20;;;;;;;51.78;38.40;;;;;;;;;;5135654;27;20075;-72
2021/11/08 11:47:59;;;;;;;37.85;30.40;;;;;;;;;;5135478;27;20022;-71
2021/11/08 11:50:26;;;;;;;56.35;41.70;;;;;;;;;;5135685;27;20362;-71
2021/11/08 11:52:52;;;;;;;38.72;29.88;;;;;;;;;;5135406;27;20019;-74
2021/11/08 11:55:18;;;;;;;41.38;30.85;;;;;;;;;;5135188;27;20466;-74
2021/11/08 11:57:44;;;;;;;31.92;23.25;;;;;;;;;;5135418;27;20489;-72
2021/11/08 12:00:11;;;;;;;37.88;27.35;;;;;;;;;;5135304;27;20076;-71
2021/11/08 12:02:37;;;;;;;49.72;30.30;;;;;;;;;;5135269;27;20058;-71
2021/11/08 12:05:04;;;;;;;30.92;23.85;;;;;;;;;;5135208;27;20015;-73
2021/11/08 12:07:30;;;;;;;27.80;20.83;;;;;;;;;;5134985;27;20019;-72
2021/11/08 12:09:56;;;;;;;31.85;25.13;;;;;;;;;;5135456;27;20029;-72
2021/11/08 12:12:26;;;;;;;40.95;33.08;;;;;;;;;;5135110;27;20019;-71
2021/11/08 12:15:06;;;;;;;39.92;29.52;;;;;;;;;;5115151;27;20066;-71
2021/11/08 12:17:36;;;;;;;35.28;25.80;;;;;;;;;;5134900;27;20050;-71
2021/11/08 12:20:04;;;;;;;35.55;25.73;;;;;;;;;;5134689;27;20072;-72
2021/11/08 12:22:32;;;;;;;33.20;26.20;;;;;;;;;;5134741;27;20027;-71
2021/11/08 12:24:59;;;;;;;43.58;30.23;;;;;;;;;;5134868;27;20020;-71
2021/11/08 12:27:35;;;;;;;40.25;27.75;;;;;;;;;;5134609;27;20051;-72
2021/11/08 12:30:01;;;;;;;31.17;21.83;;;;;;;;;;5134819;27;20359;-72
2021/11/08 12:32:29;;;;;;;45.17;34.45;;;;;;;;;;5134666;27;20023;-71
2021/11/08 12:34:58;;;;;;;37.70;28.50;;;;;;;;;;5134468;27;20051;-71
2021/11/08 12:37:34;;;;;;;41.30;31.20;;;;;;;;;;5134352;27;20015;-72
2021/11/08 12:40:02;;;;;;;34.80;27.27;;;;;;;;;;5134572;27;20023;-71
2021/11/08 12:42:38;;;;;;;49.17;38.00;;;;;;;;;;5134553;27;20068;-71
2021/11/08 12:45:09;;;;;;;48.38;36.85;;;;;;;;;;5134493;27;20035;-71
2021/11/08 12:47:35;;;;;;;53.88;38.85;;;;;;;;;;5134305;27;20334;-71
2021/11/08 12:50:02;;;;;;;75.57;55.10;;;;;;;;;;5134235;27;20027;-71
2021/11/08 12:52:31;;;;;;;65.75;48.28;;;;;;;;;;5134326;27;20027;-71
2021/11/08 12:55:15;;;;;;;56.17;42.35;;;333.10;2329.60;;;;;;5132536;27;20114;-71
2021/11/08 12:57:55;;;;;;;66.60;49.80;;;333.00;2329.60;;;;;;5134054;27;20031;-71
2021/11/08 13:00:26;;;;;;;82.97;56.47;;;;;;;;;;5134137;27;20019;-73
2021/11/08 13:02:57;;;;;;;97.50;71.73;;;333.00;2329.60;;;;;;5132580;27;20121;-71
2021/11/08 13:05:36;;;;;;;77.60;53.80;;;333.10;2329.60;;;;;;5133928;27;20027;-71
2021/11/08 13:08:02;;;;;;;81.82;60.97;;;333.10;2329.60;;;;;;5133894;27;20312;-71
2021/11/08 13:10:34;;;;;;;68.97;50.10;;;;;;;;;;5133967;27;20132;-71
2021/11/08 13:13:00;;;;;;;44.67;32.33;;;333.10;2329.60;;;;;;5133621;27;20015;-71
2021/11/08 13:15:31;;;;;;;36.03;26.85;;;333.00;2329.60;;;;;;5134070;27;20026;-70
2021/11/08 13:18:03;;;;;;;32.33;23.70;;;333.10;2329.60;;;;;;5133773;27;20015;-71
2021/11/08 13:20:38;;;;;;;35.47;24.85;;;333.10;2329.60;;;;;;5133875;27;20038;-71
2021/11/08 13:23:12;;;;;;;48.97;35.13;;;;;;;;;;5133563;27;20164;-72
2021/11/08 13:25:41;;;;;;;45.92;34.08;;;;;;;;;;5133360;27;20374;-71
2021/11/08 13:28:10;;;;;;;42.85;30.23;;;358.50;2329.60;;;;;;5133594;27;20183;-71
2021/11/08 13:30:43;;;;;;;127.05;63.70;;;333.70;2329.60;;;;;;5133765;27;20080;-71
2021/11/08 13:33:12;;;;;;;83.53;45.95;;;333.40;2329.60;;;;;;5133591;27;20046;-71
2021/11/08 13:35:41;;;;;;;76.70;49.03;;;;;;;;;;5133415;27;20043;-72
2021/11/08 13:38:09;;;;;;;35.22;26.95;;;;;;;;;;5133221;27;20023;-70
2021/11/08 13:40:43;;;;;;;32.70;25.98;;;;;;;;;;5133312;27;20023;-71
2021/11/08 13:43:11;;;;;;;67.72;53.17;;;;;;;;;;5133326;27;20023;-72
2021/11/08 13:45:46;;;;;;;64.53;48.45;;;333.40;2329.60;;;;;;5133172;27;20076;-70
2021/11/08 13:48:21;;;;;;;160.63;120.32;;;333.40;2329.60;;;;;;5133750;27;20016;-70
2021/11/08 13:50:47;;;;;;;134.82;101.95;;;333.20;2329.60;;;;;;5133062;27;20047;-71
2021/11/08 13:53:18;;;;;;;117.28;88.05;;;333.20;2329.60;;;;;;5133068;27;20062;-71
2021/11/08 13:55:44;;;;;;;56.95;49.03;;;;;;;;;;5133110;27;20023;-71
2021/11/08 13:58:09;;;;;;;59.55;49.00;;;333.70;2329.60;;;;;;5133221;27;20106;-72
2021/11/08 14:00:35;;;;;;;38.15;26.60;;;333.70;2329.60;;;;;;5133378;27;20050;-70
2021/11/08 14:03:15;;;;;;;48.83;34.35;;;333.50;2329.60;;;;;;5133186;27;20012;-72
2021/11/08 14:05:51;;;;;;;46.38;36.40;;;333.40;2329.60;;;;;;5133107;27;20123;-72
2021/11/08 14:08:25;;;;;;;50.22;36.75;;;333.40;2329.60;;;;;;5106691;28;20015;-71
2021/11/08 14:10:59;;;;;;;47.13;35.50;;;333.50;2329.60;;;;;;5132746;27;20023;-72
2021/11/08 14:13:30;;;;;;;44.13;33.28;;;333.40;2329.60;;;;;;5132923;28;20490;-70
2021/11/08 14:16:03;;;;;;;40.35;30.60;;;333.50;2329.60;;;;;;5132834;28;20054;-71
2021/11/08 14:18:29;;;;;;;39.55;30.02;;;333.60;2329.60;;;;;;5133153;28;20027;-71
2021/11/08 14:21:05;;;;;;;43.30;30.48;;;333.40;2329.60;;;;;;5132989;28;20022;-71
2021/11/08 14:23:31;;;;;;;46.20;33.50;;;333.50;2329.60;;;;;;5132821;28;20029;-71
2021/11/08 14:26:09;;;;;;;38.35;30.13;;;333.50;2329.60;;;;;;5132963;28;20031;-71
2021/11/08 14:28:35;;;;;;;35.53;25.65;;;333.60;2329.60;;;;;;5132452;28;20043;-71
2021/11/08 14:31:01;;;;;;;40.40;30.42;;;333.60;2329.60;;;;;;5132913;28;20027;-70
2021/11/08 14:33:28;;;;;;;40.78;30.58;;;;;;;;;;5132614;28;20041;-70
2021/11/08 14:35:54;;;;;;;48.30;35.03;;;;;;;;;;5133184;28;20034;-71
2021/11/08 14:38:35;;;;;;;48.13;36.25;;;333.40;2329.60;;;;;;5132703;28;20030;-71
2021/11/08 14:41:08;;;;;;;58.65;41.60;;;333.40;2329.60;;;;;;5132949;28;20046;-70
2021/11/08 14:43:34;;;;;;;48.30;35.53;;;333.30;2329.60;;;;;;5133501;27;20023;-70
2021/11/08 14:46:05;;;;;;;41.65;30.77;;;;;;;;;;5136646;27;20035;-70
2021/11/08 14:48:33;;;;;;;50.50;33.87;;;333.00;2329.60;;;;;;5137064;27;20047;-71
2021/11/08 14:51:21;;;;;;;39.58;29.65;;;;;;;;;;5136619;27;20123;-71
2021/11/08 14:53:52;;;;;;;50.58;38.10;;;;;;;;;;5136426;27;20015;-71
2021/11/08 14:56:19;;;;;;;56.17;40.97;;;;;;;;;;5108475;27;20035;-70
2021/11/08 14:58:56;;;;;;;98.45;87.68;;;;;;;;;;5136533;27;20027;-70
2021/11/08 15:01:23;;;;;;;145.13;125.75;;;;;;;;;;5136569;27;20020;-71
2021/11/08 15:04:01;;;;;;;159.88;139.27;;;333.10;2329.60;;;;;;5136414;27;20023;-71
2021/11/08 15:06:27;;;;;;;78.45;59.92;;;333.20;2329.60;;;;;;5136058;27;20069;-71